sensor_id;sensor_type;location;lat;lon;timestamp;P1;durP1;ratioP1;P2;durP2;ratioP2
49510;SDS011;35413;48.776;9.204;2022-10-31T00:01:34;4.07;;;2.50;;
49510;SDS011;35413;48.776;9.204;2022-10-31T00:04:01;3.45;;;2.25;;
49510;SDS011;35413;48.776;9.204;2022-10-31T00:06:27;4.85;;;3.00;;
49510;SDS011;35413;48.776;9.204;2022-10-31T00:08:54;3.45;;;2.35;;
49510;SDS011;35413;48.776;9.204;2022-10-31T00:11:21;4.38;;;2.50;;
49510;SDS011;35413;48.776;9.204;2022-10-31T00:13:48;4.28;;;2.75;;
49510;SDS011;35413;48.776;9.204;2022-10-31T00:16:17;4.60;;;2.30;;
49510;SDS011;35413;48.776;9.204;2022-10-31T00:18:51;3.60;;;2.63;;
49510;SDS011;35413;48.776;9.204;2022-10-31T00:21:18;4.38;;;2.60;;
49510;SDS011;35413;48.776;9.204;2022-10-31T00:23:51;3.70;;;2.30;;
49510;SDS011;35413;48.776;9.204;2022-10-31T00:26:17;3.50;;;2.10;;
49510;SDS011;35413;48.776;9.204;2022-10-31T00:28:43;4.82;;;2.42;;
49510;SDS011;35413;48.776;9.204;2022-10-31T00:31:09;3.33;;;2.30;;
49510;SDS011;35413;48.776;9.204;2022-10-31T00:33:36;5.03;;;2.78;;
49510;SDS011;35413;48.776;9.204;2022-10-31T00:36:03;2.97;;;1.85;;
49510;SDS011;35413;48.776;9.204;2022-10-31T00:38:31;3.13;;;2.30;;
49510;SDS011;35413;48.776;9.204;2022-10-31T00:40:56;3.85;;;2.00;;
49510;SDS011;35413;48.776;9.204;2022-10-31T00:43:22;4.13;;;2.55;;
49510;SDS011;35413;48.776;9.204;2022-10-31T00:45:48;4.72;;;2.20;;
49510;SDS011;35413;48.776;9.204;2022-10-31T00:48:13;4.55;;;2.22;;
49510;SDS011;35413;48.776;9.204;2022-10-31T00:50:39;4.03;;;2.22;;
49510;SDS011;35413;48.776;9.204;2022-10-31T00:53:05;3.95;;;2.30;;
49510;SDS011;35413;48.776;9.204;2022-10-31T00:55:31;3.33;;;1.95;;
49510;SDS011;35413;48.776;9.204;2022-10-31T00:57:57;3.22;;;2.22;;
49510;SDS011;35413;48.776;9.204;2022-10-31T01:00:23;3.75;;;2.30;;
49510;SDS011;35413;48.776;9.204;2022-10-31T01:02:48;4.32;;;2.65;;
49510;SDS011;35413;48.776;9.204;2022-10-31T01:05:14;4.22;;;2.10;;
49510;SDS011;35413;48.776;9.204;2022-10-31T01:07:40;3.83;;;2.10;;
49510;SDS011;35413;48.776;9.204;2022-10-31T01:10:06;2.95;;;1.88;;
49510;SDS011;35413;48.776;9.204;2022-10-31T01:12:36;5.18;;;2.40;;
49510;SDS011;35413;48.776;9.204;2022-10-31T01:15:06;3.10;;;2.13;;
49510;SDS011;35413;48.776;9.204;2022-10-31T01:17:32;3.72;;;2.53;;
49510;SDS011;35413;48.776;9.204;2022-10-31T01:19:59;5.93;;;2.70;;
49510;SDS011;35413;48.776;9.204;2022-10-31T01:22:24;4.28;;;2.10;;
49510;SDS011;35413;48.776;9.204;2022-10-31T01:24:50;3.35;;;1.90;;
49510;SDS011;35413;48.776;9.204;2022-10-31T01:27:16;3.35;;;2.00;;
49510;SDS011;35413;48.776;9.204;2022-10-31T01:29:41;3.10;;;2.00;;
49510;SDS011;35413;48.776;9.204;2022-10-31T01:32:07;5.13;;;2.10;;
49510;SDS011;35413;48.776;9.204;2022-10-31T01:34:32;5.40;;;2.10;;
49510;SDS011;35413;48.776;9.204;2022-10-31T01:36:58;4.53;;;2.15;;
49510;SDS011;35413;48.776;9.204;2022-10-31T01:39:24;4.03;;;2.03;;
49510;SDS011;35413;48.776;9.204;2022-10-31T01:41:50;3.50;;;2.10;;
49510;SDS011;35413;48.776;9.204;2022-10-31T01:49:40;3.85;;;2.33;;
49510;SDS011;35413;48.776;9.204;2022-10-31T01:55:05;5.97;;;2.63;;
49510;SDS011;35413;48.776;9.204;2022-10-31T01:57:41;3.63;;;2.33;;
49510;SDS011;35413;48.776;9.204;2022-10-31T02:00:09;2.45;;;1.92;;
49510;SDS011;35413;48.776;9.204;2022-10-31T02:02:36;2.45;;;1.77;;
49510;SDS011;35413;48.776;9.204;2022-10-31T02:05:02;4.72;;;1.92;;
49510;SDS011;35413;48.776;9.204;2022-10-31T02:07:39;3.70;;;2.10;;
49510;SDS011;35413;48.776;9.204;2022-10-31T02:10:07;5.05;;;2.38;;
49510;SDS011;35413;48.776;9.204;2022-10-31T02:12:33;4.28;;;2.03;;
49510;SDS011;35413;48.776;9.204;2022-10-31T02:15:01;4.15;;;2.08;;
49510;SDS011;35413;48.776;9.204;2022-10-31T02:17:28;4.35;;;2.10;;
49510;SDS011;35413;48.776;9.204;2022-10-31T02:22:37;3.97;;;2.25;;
49510;SDS011;35413;48.776;9.204;2022-10-31T02:31:00;3.58;;;2.00;;
49510;SDS011;35413;48.776;9.204;2022-10-31T02:36:19;2.50;;;1.80;;
49510;SDS011;35413;48.776;9.204;2022-10-31T02:47:01;3.47;;;2.25;;
49510;SDS011;35413;48.776;9.204;2022-10-31T02:49:33;3.05;;;2.13;;
49510;SDS011;35413;48.776;9.204;2022-10-31T02:52:21;3.30;;;1.90;;
49510;SDS011;35413;48.776;9.204;2022-10-31T02:54:50;3.33;;;1.95;;
49510;SDS011;35413;48.776;9.204;2022-10-31T02:57:18;3.90;;;2.13;;
49510;SDS011;35413;48.776;9.204;2022-10-31T02:59:51;6.82;;;1.92;;
49510;SDS011;35413;48.776;9.204;2022-10-31T03:05:22;2.92;;;1.67;;
49510;SDS011;35413;48.776;9.204;2022-10-31T03:36:02;2.92;;;2.08;;
49510;SDS011;35413;48.776;9.204;2022-10-31T03:38:33;3.22;;;1.90;;
49510;SDS011;35413;48.776;9.204;2022-10-31T03:41:01;2.47;;;1.98;;
49510;SDS011;35413;48.776;9.204;2022-10-31T03:43:32;3.53;;;2.50;;
49510;SDS011;35413;48.776;9.204;2022-10-31T03:46:01;4.15;;;2.08;;
49510;SDS011;35413;48.776;9.204;2022-10-31T03:48:28;4.07;;;2.47;;
49510;SDS011;35413;48.776;9.204;2022-10-31T03:53:57;2.42;;;2.00;;
49510;SDS011;35413;48.776;9.204;2022-10-31T03:59:05;4.85;;;2.05;;
49510;SDS011;35413;48.776;9.204;2022-10-31T04:01:41;3.70;;;2.20;;
49510;SDS011;35413;48.776;9.204;2022-10-31T04:04:10;3.05;;;1.90;;
49510;SDS011;35413;48.776;9.204;2022-10-31T04:06:36;2.70;;;1.70;;
49510;SDS011;35413;48.776;9.204;2022-10-31T04:09:04;2.38;;;1.67;;
49510;SDS011;35413;48.776;9.204;2022-10-31T04:11:33;2.38;;;1.90;;
49510;SDS011;35413;48.776;9.204;2022-10-31T04:14:01;3.42;;;1.70;;
49510;SDS011;35413;48.776;9.204;2022-10-31T04:16:29;3.00;;;1.83;;
49510;SDS011;35413;48.776;9.204;2022-10-31T04:18:55;3.72;;;2.30;;
49510;SDS011;35413;48.776;9.204;2022-10-31T04:21:26;2.85;;;2.10;;
49510;SDS011;35413;48.776;9.204;2022-10-31T04:23:55;3.80;;;1.70;;
49510;SDS011;35413;48.776;9.204;2022-10-31T04:26:22;3.90;;;2.13;;
49510;SDS011;35413;48.776;9.204;2022-10-31T04:28:49;3.55;;;1.70;;
49510;SDS011;35413;48.776;9.204;2022-10-31T04:31:14;3.10;;;1.92;;
49510;SDS011;35413;48.776;9.204;2022-10-31T04:33:40;2.95;;;1.70;;
49510;SDS011;35413;48.776;9.204;2022-10-31T04:36:07;3.47;;;1.90;;
49510;SDS011;35413;48.776;9.204;2022-10-31T04:38:33;2.97;;;1.95;;
49510;SDS011;35413;48.776;9.204;2022-10-31T04:40:59;2.47;;;1.80;;
49510;SDS011;35413;48.776;9.204;2022-10-31T04:43:24;3.67;;;1.88;;
49510;SDS011;35413;48.776;9.204;2022-10-31T04:45:50;2.95;;;1.80;;
49510;SDS011;35413;48.776;9.204;2022-10-31T04:48:16;4.90;;;1.98;;
49510;SDS011;35413;48.776;9.204;2022-10-31T04:50:42;2.75;;;1.95;;
49510;SDS011;35413;48.776;9.204;2022-10-31T04:53:08;2.08;;;1.88;;
49510;SDS011;35413;48.776;9.204;2022-10-31T04:55:34;2.25;;;1.48;;
49510;SDS011;35413;48.776;9.204;2022-10-31T04:58:00;4.15;;;1.90;;
49510;SDS011;35413;48.776;9.204;2022-10-31T05:00:26;3.65;;;1.95;;
49510;SDS011;35413;48.776;9.204;2022-10-31T05:02:53;2.58;;;1.80;;
49510;SDS011;35413;48.776;9.204;2022-10-31T05:05:20;4.03;;;1.55;;
49510;SDS011;35413;48.776;9.204;2022-10-31T05:07:48;3.10;;;2.38;;
49510;SDS011;35413;48.776;9.204;2022-10-31T05:10:15;2.70;;;1.67;;
49510;SDS011;35413;48.776;9.204;2022-10-31T05:12:50;2.75;;;2.10;;
49510;SDS011;35413;48.776;9.204;2022-10-31T05:15:18;2.38;;;1.70;;
49510;SDS011;35413;48.776;9.204;2022-10-31T05:17:51;2.63;;;1.60;;
49510;SDS011;35413;48.776;9.204;2022-10-31T05:20:19;2.22;;;1.48;;
49510;SDS011;35413;48.776;9.204;2022-10-31T05:22:49;2.97;;;2.05;;
49510;SDS011;35413;48.776;9.204;2022-10-31T05:25:16;2.75;;;1.63;;
49510;SDS011;35413;48.776;9.204;2022-10-31T05:27:43;4.20;;;2.38;;
49510;SDS011;35413;48.776;9.204;2022-10-31T05:30:10;2.92;;;2.08;;
49510;SDS011;35413;48.776;9.204;2022-10-31T05:32:42;3.58;;;1.80;;
49510;SDS011;35413;48.776;9.204;2022-10-31T05:35:09;3.95;;;2.00;;
49510;SDS011;35413;48.776;9.204;2022-10-31T05:37:37;3.40;;;1.75;;
49510;SDS011;35413;48.776;9.204;2022-10-31T05:40:04;3.40;;;1.77;;
49510;SDS011;35413;48.776;9.204;2022-10-31T05:42:31;3.65;;;1.88;;
49510;SDS011;35413;48.776;9.204;2022-10-31T05:44:57;2.70;;;1.95;;
49510;SDS011;35413;48.776;9.204;2022-10-31T05:47:22;3.10;;;2.05;;
49510;SDS011;35413;48.776;9.204;2022-10-31T05:49:48;3.90;;;1.95;;
49510;SDS011;35413;48.776;9.204;2022-10-31T05:52:14;2.58;;;2.10;;
49510;SDS011;35413;48.776;9.204;2022-10-31T05:54:40;2.63;;;1.83;;
49510;SDS011;35413;48.776;9.204;2022-10-31T05:57:05;2.33;;;1.88;;
49510;SDS011;35413;48.776;9.204;2022-10-31T05:59:31;3.33;;;1.88;;
49510;SDS011;35413;48.776;9.204;2022-10-31T06:01:57;3.38;;;1.90;;
49510;SDS011;35413;48.776;9.204;2022-10-31T06:04:23;2.58;;;1.67;;
49510;SDS011;35413;48.776;9.204;2022-10-31T06:06:48;2.88;;;1.85;;
49510;SDS011;35413;48.776;9.204;2022-10-31T06:09:14;3.08;;;1.88;;
49510;SDS011;35413;48.776;9.204;2022-10-31T06:11:40;3.30;;;1.80;;
49510;SDS011;35413;48.776;9.204;2022-10-31T06:14:05;2.55;;;1.60;;
49510;SDS011;35413;48.776;9.204;2022-10-31T06:16:31;2.35;;;1.70;;
49510;SDS011;35413;48.776;9.204;2022-10-31T06:18:57;3.05;;;1.88;;
49510;SDS011;35413;48.776;9.204;2022-10-31T06:21:23;2.70;;;1.80;;
49510;SDS011;35413;48.776;9.204;2022-10-31T06:23:49;3.03;;;2.10;;
49510;SDS011;35413;48.776;9.204;2022-10-31T06:26:15;3.28;;;1.85;;
49510;SDS011;35413;48.776;9.204;2022-10-31T06:28:40;2.75;;;1.90;;
49510;SDS011;35413;48.776;9.204;2022-10-31T06:31:06;3.13;;;2.00;;
49510;SDS011;35413;48.776;9.204;2022-10-31T06:33:32;3.78;;;1.60;;
49510;SDS011;35413;48.776;9.204;2022-10-31T06:35:59;3.05;;;1.75;;
49510;SDS011;35413;48.776;9.204;2022-10-31T06:38:25;3.30;;;1.70;;
49510;SDS011;35413;48.776;9.204;2022-10-31T06:40:52;3.00;;;1.75;;
49510;SDS011;35413;48.776;9.204;2022-10-31T06:43:18;2.67;;;1.80;;
49510;SDS011;35413;48.776;9.204;2022-10-31T06:45:51;2.80;;;1.80;;
49510;SDS011;35413;48.776;9.204;2022-10-31T06:48:16;3.58;;;2.00;;
49510;SDS011;35413;48.776;9.204;2022-10-31T06:50:42;4.78;;;1.88;;
49510;SDS011;35413;48.776;9.204;2022-10-31T06:53:09;3.17;;;1.67;;
49510;SDS011;35413;48.776;9.204;2022-10-31T06:55:35;3.67;;;1.92;;
49510;SDS011;35413;48.776;9.204;2022-10-31T06:58:01;2.97;;;1.73;;
49510;SDS011;35413;48.776;9.204;2022-10-31T07:00:28;2.55;;;1.60;;
49510;SDS011;35413;48.776;9.204;2022-10-31T07:02:56;3.35;;;1.70;;
49510;SDS011;35413;48.776;9.204;2022-10-31T07:05:30;3.50;;;1.70;;
49510;SDS011;35413;48.776;9.204;2022-10-31T07:07:56;3.45;;;2.08;;
49510;SDS011;35413;48.776;9.204;2022-10-31T07:10:28;4.00;;;1.83;;
49510;SDS011;35413;48.776;9.204;2022-10-31T07:12:58;5.85;;;2.70;;
49510;SDS011;35413;48.776;9.204;2022-10-31T07:15:26;11.30;;;3.70;;
49510;SDS011;35413;48.776;9.204;2022-10-31T07:17:53;8.07;;;3.35;;
49510;SDS011;35413;48.776;9.204;2022-10-31T07:20:19;7.05;;;3.03;;
49510;SDS011;35413;48.776;9.204;2022-10-31T07:22:50;6.28;;;3.20;;
49510;SDS011;35413;48.776;9.204;2022-10-31T07:25:16;6.40;;;3.30;;
49510;SDS011;35413;48.776;9.204;2022-10-31T07:27:42;6.25;;;2.60;;
49510;SDS011;35413;48.776;9.204;2022-10-31T07:30:09;6.72;;;3.70;;
49510;SDS011;35413;48.776;9.204;2022-10-31T07:32:42;5.45;;;2.78;;
49510;SDS011;35413;48.776;9.204;2022-10-31T07:35:09;5.10;;;2.70;;
49510;SDS011;35413;48.776;9.204;2022-10-31T07:37:36;4.35;;;2.10;;
49510;SDS011;35413;48.776;9.204;2022-10-31T07:40:02;4.88;;;2.30;;
49510;SDS011;35413;48.776;9.204;2022-10-31T07:42:29;3.78;;;2.20;;
49510;SDS011;35413;48.776;9.204;2022-10-31T07:44:59;4.80;;;2.28;;
49510;SDS011;35413;48.776;9.204;2022-10-31T07:47:24;3.83;;;2.67;;
49510;SDS011;35413;48.776;9.204;2022-10-31T07:49:50;7.18;;;3.42;;
49510;SDS011;35413;48.776;9.204;2022-10-31T07:52:15;4.88;;;2.45;;
49510;SDS011;35413;48.776;9.204;2022-10-31T07:54:41;6.20;;;2.65;;
49510;SDS011;35413;48.776;9.204;2022-10-31T07:57:06;9.30;;;2.70;;
49510;SDS011;35413;48.776;9.204;2022-10-31T07:59:32;5.43;;;3.10;;
49510;SDS011;35413;48.776;9.204;2022-10-31T08:01:58;5.75;;;2.42;;
49510;SDS011;35413;48.776;9.204;2022-10-31T08:04:23;6.97;;;2.65;;
49510;SDS011;35413;48.776;9.204;2022-10-31T08:06:49;7.25;;;2.47;;
49510;SDS011;35413;48.776;9.204;2022-10-31T08:09:14;6.28;;;3.08;;
49510;SDS011;35413;48.776;9.204;2022-10-31T08:11:40;4.53;;;2.80;;
49510;SDS011;35413;48.776;9.204;2022-10-31T08:14:06;7.20;;;2.60;;
49510;SDS011;35413;48.776;9.204;2022-10-31T08:16:31;4.78;;;2.30;;
49510;SDS011;35413;48.776;9.204;2022-10-31T08:18:57;4.95;;;2.45;;
49510;SDS011;35413;48.776;9.204;2022-10-31T08:21:22;5.57;;;2.90;;
49510;SDS011;35413;48.776;9.204;2022-10-31T08:23:49;5.40;;;2.60;;
49510;SDS011;35413;48.776;9.204;2022-10-31T08:26:14;4.88;;;2.20;;
49510;SDS011;35413;48.776;9.204;2022-10-31T08:28:40;4.32;;;2.35;;
49510;SDS011;35413;48.776;9.204;2022-10-31T08:31:06;4.50;;;2.58;;
49510;SDS011;35413;48.776;9.204;2022-10-31T08:33:31;6.05;;;2.60;;
49510;SDS011;35413;48.776;9.204;2022-10-31T08:35:57;4.63;;;2.15;;
49510;SDS011;35413;48.776;9.204;2022-10-31T08:38:23;4.55;;;2.42;;
49510;SDS011;35413;48.776;9.204;2022-10-31T08:40:49;3.80;;;2.30;;
49510;SDS011;35413;48.776;9.204;2022-10-31T08:43:15;5.80;;;2.05;;
49510;SDS011;35413;48.776;9.204;2022-10-31T08:45:42;6.00;;;2.97;;
49510;SDS011;35413;48.776;9.204;2022-10-31T08:48:10;5.32;;;2.50;;
49510;SDS011;35413;48.776;9.204;2022-10-31T08:50:40;5.40;;;2.33;;
49510;SDS011;35413;48.776;9.204;2022-10-31T08:53:08;4.25;;;2.58;;
49510;SDS011;35413;48.776;9.204;2022-10-31T08:55:40;6.28;;;2.60;;
49510;SDS011;35413;48.776;9.204;2022-10-31T08:58:07;4.13;;;2.60;;
49510;SDS011;35413;48.776;9.204;2022-10-31T09:00:35;4.88;;;2.30;;
49510;SDS011;35413;48.776;9.204;2022-10-31T09:03:02;7.80;;;2.60;;
49510;SDS011;35413;48.776;9.204;2022-10-31T09:05:32;5.75;;;2.67;;
49510;SDS011;35413;48.776;9.204;2022-10-31T09:07:58;6.32;;;2.67;;
49510;SDS011;35413;48.776;9.204;2022-10-31T09:10:26;6.20;;;2.10;;
49510;SDS011;35413;48.776;9.204;2022-10-31T09:15:25;3.67;;;1.95;;
49510;SDS011;35413;48.776;9.204;2022-10-31T09:17:52;6.97;;;2.22;;
49510;SDS011;35413;48.776;9.204;2022-10-31T09:20:18;4.03;;;2.38;;
49510;SDS011;35413;48.776;9.204;2022-10-31T09:23:04;6.50;;;2.40;;
49510;SDS011;35413;48.776;9.204;2022-10-31T09:25:32;5.50;;;2.42;;
49510;SDS011;35413;48.776;9.204;2022-10-31T09:27:59;5.55;;;1.83;;
49510;SDS011;35413;48.776;9.204;2022-10-31T09:30:26;4.45;;;2.10;;
49510;SDS011;35413;48.776;9.204;2022-10-31T09:32:57;3.38;;;2.08;;
49510;SDS011;35413;48.776;9.204;2022-10-31T09:35:27;6.28;;;2.42;;
49510;SDS011;35413;48.776;9.204;2022-10-31T09:37:56;2.85;;;1.95;;
49510;SDS011;35413;48.776;9.204;2022-10-31T09:43:37;6.22;;;2.33;;
49510;SDS011;35413;48.776;9.204;2022-10-31T09:46:33;5.90;;;2.40;;
49510;SDS011;35413;48.776;9.204;2022-10-31T09:51:51;3.35;;;1.95;;
49510;SDS011;35413;48.776;9.204;2022-10-31T09:56:52;4.60;;;2.08;;
49510;SDS011;35413;48.776;9.204;2022-10-31T09:59:39;4.82;;;2.50;;
49510;SDS011;35413;48.776;9.204;2022-10-31T10:02:19;6.13;;;2.40;;
49510;SDS011;35413;48.776;9.204;2022-10-31T10:05:08;5.57;;;3.05;;
49510;SDS011;35413;48.776;9.204;2022-10-31T10:10:18;5.20;;;2.22;;
49510;SDS011;35413;48.776;9.204;2022-10-31T10:15:20;5.43;;;2.30;;
49510;SDS011;35413;48.776;9.204;2022-10-31T10:18:26;4.80;;;2.15;;
49510;SDS011;35413;48.776;9.204;2022-10-31T10:21:02;3.38;;;2.17;;
49510;SDS011;35413;48.776;9.204;2022-10-31T10:26:59;4.95;;;2.05;;
49510;SDS011;35413;48.776;9.204;2022-10-31T10:29:32;3.97;;;2.42;;
49510;SDS011;35413;48.776;9.204;2022-10-31T10:32:17;6.50;;;2.13;;
49510;SDS011;35413;48.776;9.204;2022-10-31T10:34:52;4.75;;;2.33;;
49510;SDS011;35413;48.776;9.204;2022-10-31T10:37:30;4.32;;;2.13;;
49510;SDS011;35413;48.776;9.204;2022-10-31T10:40:07;3.17;;;2.25;;
49510;SDS011;35413;48.776;9.204;2022-10-31T10:42:43;4.00;;;2.15;;
49510;SDS011;35413;48.776;9.204;2022-10-31T10:45:37;4.35;;;2.60;;
49510;SDS011;35413;48.776;9.204;2022-10-31T10:48:34;2.90;;;1.90;;
49510;SDS011;35413;48.776;9.204;2022-10-31T10:51:40;4.22;;;1.73;;
49510;SDS011;35413;48.776;9.204;2022-10-31T10:56:53;2.97;;;2.25;;
49510;SDS011;35413;48.776;9.204;2022-10-31T10:59:25;8.48;;;1.95;;
49510;SDS011;35413;48.776;9.204;2022-10-31T11:01:52;6.63;;;2.20;;
49510;SDS011;35413;48.776;9.204;2022-10-31T11:04:38;3.78;;;2.00;;
49510;SDS011;35413;48.776;9.204;2022-10-31T11:07:07;3.55;;;1.92;;
49510;SDS011;35413;48.776;9.204;2022-10-31T11:09:34;4.05;;;2.22;;
49510;SDS011;35413;48.776;9.204;2022-10-31T11:12:09;3.53;;;1.95;;
49510;SDS011;35413;48.776;9.204;2022-10-31T11:14:45;4.72;;;2.30;;
49510;SDS011;35413;48.776;9.204;2022-10-31T11:17:27;4.47;;;2.22;;
49510;SDS011;35413;48.776;9.204;2022-10-31T11:20:39;5.13;;;2.20;;
49510;SDS011;35413;48.776;9.204;2022-10-31T11:22:47;8.10;;;2.42;;
49510;SDS011;35413;48.776;9.204;2022-10-31T11:27:46;3.30;;;2.10;;
49510;SDS011;35413;48.776;9.204;2022-10-31T11:30:13;4.65;;;2.53;;
49510;SDS011;35413;48.776;9.204;2022-10-31T11:32:43;2.95;;;2.10;;
49510;SDS011;35413;48.776;9.204;2022-10-31T11:35:16;4.55;;;2.10;;
49510;SDS011;35413;48.776;9.204;2022-10-31T11:37:43;5.28;;;2.88;;
49510;SDS011;35413;48.776;9.204;2022-10-31T11:43:02;6.63;;;2.55;;
49510;SDS011;35413;48.776;9.204;2022-10-31T11:45:32;4.65;;;2.55;;
49510;SDS011;35413;48.776;9.204;2022-10-31T11:47:58;5.78;;;2.47;;
49510;SDS011;35413;48.776;9.204;2022-10-31T11:50:35;9.90;;;4.07;;
49510;SDS011;35413;48.776;9.204;2022-10-31T11:53:10;10.70;;;4.45;;
49510;SDS011;35413;48.776;9.204;2022-10-31T11:55:40;12.00;;;4.30;;
49510;SDS011;35413;48.776;9.204;2022-10-31T11:58:22;11.02;;;4.32;;
49510;SDS011;35413;48.776;9.204;2022-10-31T12:00:54;16.08;;;4.80;;
49510;SDS011;35413;48.776;9.204;2022-10-31T12:06:30;13.05;;;3.70;;
49510;SDS011;35413;48.776;9.204;2022-10-31T12:09:01;10.20;;;4.60;;
49510;SDS011;35413;48.776;9.204;2022-10-31T12:17:28;24.13;;;8.85;;
49510;SDS011;35413;48.776;9.204;2022-10-31T12:20:16;25.63;;;10.13;;
49510;SDS011;35413;48.776;9.204;2022-10-31T12:37:14;10.32;;;4.43;;
49510;SDS011;35413;48.776;9.204;2022-10-31T12:48:24;13.10;;;5.03;;
49510;SDS011;35413;48.776;9.204;2022-10-31T13:01:52;7.78;;;4.07;;
49510;SDS011;35413;48.776;9.204;2022-10-31T13:07:50;12.95;;;4.53;;
49510;SDS011;35413;48.776;9.204;2022-10-31T13:16:25;6.90;;;3.58;;
49510;SDS011;35413;48.776;9.204;2022-10-31T13:19:00;10.70;;;3.83;;
49510;SDS011;35413;48.776;9.204;2022-10-31T13:24:00;7.57;;;4.13;;
49510;SDS011;35413;48.776;9.204;2022-10-31T13:26:35;9.02;;;3.88;;
49510;SDS011;35413;48.776;9.204;2022-10-31T13:31:52;7.07;;;4.22;;
49510;SDS011;35413;48.776;9.204;2022-10-31T13:34:23;8.55;;;3.92;;
49510;SDS011;35413;48.776;9.204;2022-10-31T13:42:32;8.88;;;4.20;;
49510;SDS011;35413;48.776;9.204;2022-10-31T13:45:20;5.88;;;3.60;;
49510;SDS011;35413;48.776;9.204;2022-10-31T13:50:32;9.77;;;3.40;;
49510;SDS011;35413;48.776;9.204;2022-10-31T13:53:18;5.68;;;3.30;;
49510;SDS011;35413;48.776;9.204;2022-10-31T13:55:49;8.85;;;3.78;;
49510;SDS011;35413;48.776;9.204;2022-10-31T14:03:39;8.80;;;3.92;;
49510;SDS011;35413;48.776;9.204;2022-10-31T14:06:06;6.43;;;3.90;;
49510;SDS011;35413;48.776;9.204;2022-10-31T14:08:34;5.80;;;3.28;;
49510;SDS011;35413;48.776;9.204;2022-10-31T14:11:03;6.93;;;3.05;;
49510;SDS011;35413;48.776;9.204;2022-10-31T14:13:36;8.25;;;3.65;;
49510;SDS011;35413;48.776;9.204;2022-10-31T14:19:04;7.25;;;3.65;;
49510;SDS011;35413;48.776;9.204;2022-10-31T14:21:43;8.30;;;3.65;;
49510;SDS011;35413;48.776;9.204;2022-10-31T14:24:32;6.45;;;3.75;;
49510;SDS011;35413;48.776;9.204;2022-10-31T14:27:01;8.02;;;4.28;;
49510;SDS011;35413;48.776;9.204;2022-10-31T14:29:33;10.25;;;4.32;;
49510;SDS011;35413;48.776;9.204;2022-10-31T14:34:39;7.07;;;3.55;;
49510;SDS011;35413;48.776;9.204;2022-10-31T14:47:58;7.07;;;3.83;;
49510;SDS011;35413;48.776;9.204;2022-10-31T14:50:48;5.80;;;3.15;;
49510;SDS011;35413;48.776;9.204;2022-10-31T14:53:28;11.35;;;4.00;;
49510;SDS011;35413;48.776;9.204;2022-10-31T14:55:57;6.28;;;3.65;;
49510;SDS011;35413;48.776;9.204;2022-10-31T15:00:57;7.03;;;3.75;;
49510;SDS011;35413;48.776;9.204;2022-10-31T15:03:28;10.60;;;5.65;;
49510;SDS011;35413;48.776;9.204;2022-10-31T15:06:01;7.28;;;4.05;;
49510;SDS011;35413;48.776;9.204;2022-10-31T15:08:37;7.40;;;3.65;;
49510;SDS011;35413;48.776;9.204;2022-10-31T15:11:20;8.73;;;4.53;;
49510;SDS011;35413;48.776;9.204;2022-10-31T15:13:49;7.70;;;3.22;;
49510;SDS011;35413;48.776;9.204;2022-10-31T15:16:32;7.35;;;3.58;;
49510;SDS011;35413;48.776;9.204;2022-10-31T15:19:33;8.05;;;3.90;;
49510;SDS011;35413;48.776;9.204;2022-10-31T15:21:54;8.00;;;3.35;;
49510;SDS011;35413;48.776;9.204;2022-10-31T15:24:22;7.30;;;3.42;;
49510;SDS011;35413;48.776;9.204;2022-10-31T15:26:51;7.40;;;3.55;;
49510;SDS011;35413;48.776;9.204;2022-10-31T15:29:19;8.60;;;3.85;;
49510;SDS011;35413;48.776;9.204;2022-10-31T15:31:50;7.72;;;3.08;;
49510;SDS011;35413;48.776;9.204;2022-10-31T15:34:21;8.48;;;3.60;;
49510;SDS011;35413;48.776;9.204;2022-10-31T15:37:03;8.02;;;2.97;;
49510;SDS011;35413;48.776;9.204;2022-10-31T15:39:28;9.52;;;4.72;;
49510;SDS011;35413;48.776;9.204;2022-10-31T15:41:55;7.82;;;3.15;;
49510;SDS011;35413;48.776;9.204;2022-10-31T15:44:33;9.63;;;4.93;;
49510;SDS011;35413;48.776;9.204;2022-10-31T15:47:01;9.35;;;3.80;;
49510;SDS011;35413;48.776;9.204;2022-10-31T15:49:52;9.80;;;4.35;;
49510;SDS011;35413;48.776;9.204;2022-10-31T15:57:33;4.85;;;3.05;;
49510;SDS011;35413;48.776;9.204;2022-10-31T16:00:23;5.80;;;3.30;;
49510;SDS011;35413;48.776;9.204;2022-10-31T16:10:54;7.45;;;3.40;;
49510;SDS011;35413;48.776;9.204;2022-10-31T16:13:28;8.63;;;4.10;;
49510;SDS011;35413;48.776;9.204;2022-10-31T16:15:57;7.55;;;3.47;;
49510;SDS011;35413;48.776;9.204;2022-10-31T16:18:28;7.60;;;3.43;;
49510;SDS011;35413;48.776;9.204;2022-10-31T16:20:59;7.00;;;3.25;;
49510;SDS011;35413;48.776;9.204;2022-10-31T16:23:25;9.48;;;3.42;;
49510;SDS011;35413;48.776;9.204;2022-10-31T16:25:52;6.95;;;2.90;;
49510;SDS011;35413;48.776;9.204;2022-10-31T16:28:20;7.15;;;3.88;;
49510;SDS011;35413;48.776;9.204;2022-10-31T16:30:50;9.27;;;3.55;;
49510;SDS011;35413;48.776;9.204;2022-10-31T16:33:28;7.38;;;3.10;;
49510;SDS011;35413;48.776;9.204;2022-10-31T16:36:00;7.43;;;3.42;;
49510;SDS011;35413;48.776;9.204;2022-10-31T16:38:45;5.43;;;2.85;;
49510;SDS011;35413;48.776;9.204;2022-10-31T16:41:13;6.45;;;3.60;;
49510;SDS011;35413;48.776;9.204;2022-10-31T16:43:39;5.43;;;3.40;;
49510;SDS011;35413;48.776;9.204;2022-10-31T16:46:05;5.80;;;3.15;;
49510;SDS011;35413;48.776;9.204;2022-10-31T16:48:30;6.80;;;3.53;;
49510;SDS011;35413;48.776;9.204;2022-10-31T16:50:59;6.35;;;3.17;;
49510;SDS011;35413;48.776;9.204;2022-10-31T16:53:24;7.28;;;3.95;;
49510;SDS011;35413;48.776;9.204;2022-10-31T16:56:01;8.55;;;4.22;;
49510;SDS011;35413;48.776;9.204;2022-10-31T16:58:28;7.00;;;4.15;;
49510;SDS011;35413;48.776;9.204;2022-10-31T17:00:59;6.55;;;4.15;;
49510;SDS011;35413;48.776;9.204;2022-10-31T17:03:27;10.38;;;3.38;;
49510;SDS011;35413;48.776;9.204;2022-10-31T17:05:52;9.63;;;3.42;;
49510;SDS011;35413;48.776;9.204;2022-10-31T17:08:20;6.63;;;3.10;;
49510;SDS011;35413;48.776;9.204;2022-10-31T17:10:47;8.63;;;3.15;;
49510;SDS011;35413;48.776;9.204;2022-10-31T17:13:18;8.38;;;3.42;;
49510;SDS011;35413;48.776;9.204;2022-10-31T17:15:49;6.72;;;3.17;;
49510;SDS011;35413;48.776;9.204;2022-10-31T17:18:17;9.10;;;3.50;;
49510;SDS011;35413;48.776;9.204;2022-10-31T17:20:43;8.98;;;3.50;;
49510;SDS011;35413;48.776;9.204;2022-10-31T17:23:10;5.45;;;3.05;;
49510;SDS011;35413;48.776;9.204;2022-10-31T17:25:37;10.43;;;4.70;;
49510;SDS011;35413;48.776;9.204;2022-10-31T17:28:04;14.95;;;7.68;;
49510;SDS011;35413;48.776;9.204;2022-10-31T17:30:30;17.25;;;10.52;;
49510;SDS011;35413;48.776;9.204;2022-10-31T17:32:57;14.00;;;9.43;;
49510;SDS011;35413;48.776;9.204;2022-10-31T17:35:23;14.20;;;9.38;;
49510;SDS011;35413;48.776;9.204;2022-10-31T17:37:52;13.27;;;9.20;;
49510;SDS011;35413;48.776;9.204;2022-10-31T17:40:19;12.68;;;9.05;;
49510;SDS011;35413;48.776;9.204;2022-10-31T17:42:52;11.27;;;7.57;;
49510;SDS011;35413;48.776;9.204;2022-10-31T17:45:20;11.63;;;8.10;;
49510;SDS011;35413;48.776;9.204;2022-10-31T17:47:47;14.93;;;8.38;;
49510;SDS011;35413;48.776;9.204;2022-10-31T17:50:14;11.43;;;7.63;;
49510;SDS011;35413;48.776;9.204;2022-10-31T17:52:40;12.25;;;7.22;;
49510;SDS011;35413;48.776;9.204;2022-10-31T17:55:06;11.05;;;7.53;;
49510;SDS011;35413;48.776;9.204;2022-10-31T17:57:33;15.77;;;7.45;;
49510;SDS011;35413;48.776;9.204;2022-10-31T18:00:00;11.50;;;7.82;;
49510;SDS011;35413;48.776;9.204;2022-10-31T18:02:26;12.10;;;7.65;;
49510;SDS011;35413;48.776;9.204;2022-10-31T18:04:52;12.40;;;7.35;;
49510;SDS011;35413;48.776;9.204;2022-10-31T18:07:17;10.77;;;6.95;;
49510;SDS011;35413;48.776;9.204;2022-10-31T18:09:47;12.20;;;6.80;;
49510;SDS011;35413;48.776;9.204;2022-10-31T18:12:12;12.02;;;7.32;;
49510;SDS011;35413;48.776;9.204;2022-10-31T18:14:39;9.20;;;6.75;;
49510;SDS011;35413;48.776;9.204;2022-10-31T18:17:05;12.90;;;7.50;;